sensor_id;sensor_type;location;lat;lon;timestamp;temperature;humidity
18297;DHT22;18066;52.106;5.534;2023-10-19T00:02:45;11.80;99.90
18297;DHT22;18066;52.106;5.534;2023-10-19T00:05:10;11.80;99.90
18297;DHT22;18066;52.106;5.534;2023-10-19T00:07:40;11.90;99.90
18297;DHT22;18066;52.106;5.534;2023-10-19T00:10:07;11.90;99.90
18297;DHT22;18066;52.106;5.534;2023-10-19T00:12:35;11.90;99.90
18297;DHT22;18066;52.106;5.534;2023-10-19T00:15:03;11.90;99.90
18297;DHT22;18066;52.106;5.534;2023-10-19T00:17:30;11.90;99.90
18297;DHT22;18066;52.106;5.534;2023-10-19T00:19:58;11.90;99.90
18297;DHT22;18066;52.106;5.534;2023-10-19T00:22:46;12.00;99.90
18297;DHT22;18066;52.106;5.534;2023-10-19T00:25:13;11.90;99.90
18297;DHT22;18066;52.106;5.534;2023-10-19T00:27:40;12.00;99.90
18297;DHT22;18066;52.106;5.534;2023-10-19T00:30:08;12.00;99.90
18297;DHT22;18066;52.106;5.534;2023-10-19T00:32:36;12.00;99.90
18297;DHT22;18066;52.106;5.534;2023-10-19T00:35:05;12.00;99.90
18297;DHT22;18066;52.106;5.534;2023-10-19T00:37:54;12.00;99.90
18297;DHT22;18066;52.106;5.534;2023-10-19T00:40:37;12.20;99.90
18297;DHT22;18066;52.106;5.534;2023-10-19T00:43:06;12.10;99.90
18297;DHT22;18066;52.106;5.534;2023-10-19T00:45:35;12.10;99.90
18297;DHT22;18066;52.106;5.534;2023-10-19T00:48:07;12.10;99.90
18297;DHT22;18066;52.106;5.534;2023-10-19T00:50:37;12.20;99.90
18297;DHT22;18066;52.106;5.534;2023-10-19T00:53:06;12.20;99.90
18297;DHT22;18066;52.106;5.534;2023-10-19T00:55:34;12.20;99.90
18297;DHT22;18066;52.106;5.534;2023-10-19T00:58:03;12.20;99.90
18297;DHT22;18066;52.106;5.534;2023-10-19T01:00:35;12.30;99.90
18297;DHT22;18066;52.106;5.534;2023-10-19T01:03:10;12.30;99.90
18297;DHT22;18066;52.106;5.534;2023-10-19T01:05:43;12.30;99.90
18297;DHT22;18066;52.106;5.534;2023-10-19T01:08:15;12.30;99.90
18297;DHT22;18066;52.106;5.534;2023-10-19T01:10:50;12.30;99.90
18297;DHT22;18066;52.106;5.534;2023-10-19T01:13:19;12.40;99.90
18297;DHT22;18066;52.106;5.534;2023-10-19T01:15:53;12.30;99.90
18297;DHT22;18066;52.106;5.534;2023-10-19T01:18:20;12.40;99.90
18297;DHT22;18066;52.106;5.534;2023-10-19T01:20:47;12.40;99.90
18297;DHT22;18066;52.106;5.534;2023-10-19T01:23:19;12.40;99.90
18297;DHT22;18066;52.106;5.534;2023-10-19T01:25:52;12.40;99.90
18297;DHT22;18066;52.106;5.534;2023-10-19T01:28:27;12.40;99.90
18297;DHT22;18066;52.106;5.534;2023-10-19T01:31:08;12.50;99.90
18297;DHT22;18066;52.106;5.534;2023-10-19T01:33:40;12.50;99.90
18297;DHT22;18066;52.106;5.534;2023-10-19T01:36:08;12.60;99.90
18297;DHT22;18066;52.106;5.534;2023-10-19T01:38:39;12.60;99.90
18297;DHT22;18066;52.106;5.534;2023-10-19T01:41:06;12.60;99.90
18297;DHT22;18066;52.106;5.534;2023-10-19T01:43:39;12.60;99.90
18297;DHT22;18066;52.106;5.534;2023-10-19T01:46:06;12.60;99.90
18297;DHT22;18066;52.106;5.534;2023-10-19T01:48:37;12.70;99.90
18297;DHT22;18066;52.106;5.534;2023-10-19T01:51:06;12.70;99.90
18297;DHT22;18066;52.106;5.534;2023-10-19T01:53:36;12.70;99.90
18297;DHT22;18066;52.106;5.534;2023-10-19T01:56:06;12.70;99.90
18297;DHT22;18066;52.106;5.534;2023-10-19T01:58:35;12.80;99.90
18297;DHT22;18066;52.106;5.534;2023-10-19T02:01:02;12.70;99.90
18297;DHT22;18066;52.106;5.534;2023-10-19T02:03:34;12.80;99.90
18297;DHT22;18066;52.106;5.534;2023-10-19T02:06:01;12.80;99.90
18297;DHT22;18066;52.106;5.534;2023-10-19T02:08:43;12.80;99.90
18297;DHT22;18066;52.106;5.534;2023-10-19T02:11:12;12.80;99.90
18297;DHT22;18066;52.106;5.534;2023-10-19T02:13:45;12.80;99.90
18297;DHT22;18066;52.106;5.534;2023-10-19T02:16:13;12.80;99.90
18297;DHT22;18066;52.106;5.534;2023-10-19T02:18:42;12.90;99.90
18297;DHT22;18066;52.106;5.534;2023-10-19T02:21:09;12.90;99.90
18297;DHT22;18066;52.106;5.534;2023-10-19T02:23:38;13.00;99.90
18297;DHT22;18066;52.106;5.534;2023-10-19T02:26:07;13.00;99.90
18297;DHT22;18066;52.106;5.534;2023-10-19T02:28:35;13.10;99.90
18297;DHT22;18066;52.106;5.534;2023-10-19T02:31:04;13.10;99.90
18297;DHT22;18066;52.106;5.534;2023-10-19T02:33:37;13.10;99.90
18297;DHT22;18066;52.106;5.534;2023-10-19T02:36:05;13.20;99.90
18297;DHT22;18066;52.106;5.534;2023-10-19T02:38:38;13.30;99.90
18297;DHT22;18066;52.106;5.534;2023-10-19T02:41:05;13.30;99.90
18297;DHT22;18066;52.106;5.534;2023-10-19T02:43:37;13.30;99.90
18297;DHT22;18066;52.106;5.534;2023-10-19T02:46:03;13.40;99.90
18297;DHT22;18066;52.106;5.534;2023-10-19T02:48:30;13.40;99.90
18297;DHT22;18066;52.106;5.534;2023-10-19T02:50:56;13.40;99.90
18297;DHT22;18066;52.106;5.534;2023-10-19T02:53:32;13.40;99.90
18297;DHT22;18066;52.106;5.534;2023-10-19T02:55:58;13.50;99.90
18297;DHT22;18066;52.106;5.534;2023-10-19T02:58:27;13.50;99.90
18297;DHT22;18066;52.106;5.534;2023-10-19T03:00:56;13.60;99.90
18297;DHT22;18066;52.106;5.534;2023-10-19T03:03:21;13.60;99.90
18297;DHT22;18066;52.106;5.534;2023-10-19T03:05:48;13.60;99.90
18297;DHT22;18066;52.106;5.534;2023-10-19T03:08:14;13.60;99.90
18297;DHT22;18066;52.106;5.534;2023-10-19T03:10:41;13.60;99.90
18297;DHT22;18066;52.106;5.534;2023-10-19T03:13:07;13.60;99.90
18297;DHT22;18066;52.106;5.534;2023-10-19T03:15:35;13.60;99.90
18297;DHT22;18066;52.106;5.534;2023-10-19T03:18:02;13.60;99.90
18297;DHT22;18066;52.106;5.534;2023-10-19T03:20:30;13.70;99.90
18297;DHT22;18066;52.106;5.534;2023-10-19T03:22:58;13.70;99.90
18297;DHT22;18066;52.106;5.534;2023-10-19T03:25:27;13.80;99.90
18297;DHT22;18066;52.106;5.534;2023-10-19T03:28:11;13.80;99.90
18297;DHT22;18066;52.106;5.534;2023-10-19T03:30:38;13.80;99.90
18297;DHT22;18066;52.106;5.534;2023-10-19T03:33:07;13.90;99.90
18297;DHT22;18066;52.106;5.534;2023-10-19T03:35:36;13.80;99.90
18297;DHT22;18066;52.106;5.534;2023-10-19T03:38:07;13.80;99.90
18297;DHT22;18066;52.106;5.534;2023-10-19T03:40:40;13.80;99.90
18297;DHT22;18066;52.106;5.534;2023-10-19T03:43:11;13.90;99.90
18297;DHT22;18066;52.106;5.534;2023-10-19T03:45:44;13.90;99.90
18297;DHT22;18066;52.106;5.534;2023-10-19T03:48:19;13.90;99.90
18297;DHT22;18066;52.106;5.534;2023-10-19T03:50:52;13.90;99.90
18297;DHT22;18066;52.106;5.534;2023-10-19T03:53:21;13.90;99.90
18297;DHT22;18066;52.106;5.534;2023-10-19T03:55:48;13.90;99.90
18297;DHT22;18066;52.106;5.534;2023-10-19T03:58:16;14.00;99.90
18297;DHT22;18066;52.106;5.534;2023-10-19T04:00:46;14.00;99.90
18297;DHT22;18066;52.106;5.534;2023-10-19T04:03:14;14.00;99.90
18297;DHT22;18066;52.106;5.534;2023-10-19T04:05:42;14.00;99.90
18297;DHT22;18066;52.106;5.534;2023-10-19T04:08:12;13.90;99.90
18297;DHT22;18066;52.106;5.534;2023-10-19T04:10:40;13.90;99.90
18297;DHT22;18066;52.106;5.534;2023-10-19T04:13:13;14.00;99.90
18297;DHT22;18066;52.106;5.534;2023-10-19T04:15:40;14.00;99.90
18297;DHT22;18066;52.106;5.534;2023-10-19T04:18:07;14.00;99.90
18297;DHT22;18066;52.106;5.534;2023-10-19T04:20:37;14.10;99.90
18297;DHT22;18066;52.106;5.534;2023-10-19T04:23:24;14.10;99.90
18297;DHT22;18066;52.106;5.534;2023-10-19T04:25:53;14.10;99.90
18297;DHT22;18066;52.106;5.534;2023-10-19T04:28:23;14.10;99.90
18297;DHT22;18066;52.106;5.534;2023-10-19T04:30:59;14.10;99.90
18297;DHT22;18066;52.106;5.534;2023-10-19T04:33:28;14.20;99.90
18297;DHT22;18066;52.106;5.534;2023-10-19T04:35:55;14.20;99.90
18297;DHT22;18066;52.106;5.534;2023-10-19T04:38:27;14.10;99.90
18297;DHT22;18066;52.106;5.534;2023-10-19T04:41:05;14.10;99.90
18297;DHT22;18066;52.106;5.534;2023-10-19T04:43:34;14.00;99.90
18297;DHT22;18066;52.106;5.534;2023-10-19T04:46:05;14.00;99.90
18297;DHT22;18066;52.106;5.534;2023-10-19T04:48:34;14.00;99.90
18297;DHT22;18066;52.106;5.534;2023-10-19T04:51:02;14.00;99.90
18297;DHT22;18066;52.106;5.534;2023-10-19T04:53:32;13.90;99.90
18297;DHT22;18066;52.106;5.534;2023-10-19T04:55:59;13.90;99.90
18297;DHT22;18066;52.106;5.534;2023-10-19T04:58:27;14.00;99.90
18297;DHT22;18066;52.106;5.534;2023-10-19T05:00:54;13.90;99.90
18297;DHT22;18066;52.106;5.534;2023-10-19T05:03:25;13.90;99.90
18297;DHT22;18066;52.106;5.534;2023-10-19T05:05:54;13.90;99.90
18297;DHT22;18066;52.106;5.534;2023-10-19T05:08:22;13.90;99.90
18297;DHT22;18066;52.106;5.534;2023-10-19T05:10:52;14.00;99.90
18297;DHT22;18066;52.106;5.534;2023-10-19T05:13:20;14.00;99.90
18297;DHT22;18066;52.106;5.534;2023-10-19T05:15:47;14.00;99.90
18297;DHT22;18066;52.106;5.534;2023-10-19T05:18:13;14.00;99.90
18297;DHT22;18066;52.106;5.534;2023-10-19T05:20:40;14.10;99.90
18297;DHT22;18066;52.106;5.534;2023-10-19T05:23:07;14.10;99.90
18297;DHT22;18066;52.106;5.534;2023-10-19T05:25:35;14.10;99.90
18297;DHT22;18066;52.106;5.534;2023-10-19T05:28:06;14.10;99.90
18297;DHT22;18066;52.106;5.534;2023-10-19T05:30:35;14.10;99.90
18297;DHT22;18066;52.106;5.534;2023-10-19T05:33:03;14.20;99.90
18297;DHT22;18066;52.106;5.534;2023-10-19T05:35:31;14.20;99.90
18297;DHT22;18066;52.106;5.534;2023-10-19T05:38:00;14.20;99.90
18297;DHT22;18066;52.106;5.534;2023-10-19T05:40:28;14.30;99.90
18297;DHT22;18066;52.106;5.534;2023-10-19T05:42:56;14.30;99.90
18297;DHT22;18066;52.106;5.534;2023-10-19T05:45:25;14.30;99.90
18297;DHT22;18066;52.106;5.534;2023-10-19T05:47:53;14.30;99.90
18297;DHT22;18066;52.106;5.534;2023-10-19T05:50:20;14.30;99.90
18297;DHT22;18066;52.106;5.534;2023-10-19T05:52:47;14.40;99.90
18297;DHT22;18066;52.106;5.534;2023-10-19T05:55:14;14.30;99.90
18297;DHT22;18066;52.106;5.534;2023-10-19T05:57:41;14.40;99.90
18297;DHT22;18066;52.106;5.534;2023-10-19T06:00:09;14.40;99.90
18297;DHT22;18066;52.106;5.534;2023-10-19T06:02:46;14.40;99.90
18297;DHT22;18066;52.106;5.534;2023-10-19T06:05:14;14.40;99.90
18297;DHT22;18066;52.106;5.534;2023-10-19T06:07:42;14.40;99.90
18297;DHT22;18066;52.106;5.534;2023-10-19T06:10:11;14.40;99.90
18297;DHT22;18066;52.106;5.534;2023-10-19T06:12:41;14.40;99.90
18297;DHT22;18066;52.106;5.534;2023-10-19T06:15:09;14.40;99.90
18297;DHT22;18066;52.106;5.534;2023-10-19T06:17:38;14.40;99.90
18297;DHT22;18066;52.106;5.534;2023-10-19T06:20:08;14.40;99.90
18297;DHT22;18066;52.106;5.534;2023-10-19T06:22:45;14.40;99.90
18297;DHT22;18066;52.106;5.534;2023-10-19T06:25:15;14.40;99.90
18297;DHT22;18066;52.106;5.534;2023-10-19T06:27:43;14.40;99.90
18297;DHT22;18066;52.106;5.534;2023-10-19T06:30:10;14.40;99.90
18297;DHT22;18066;52.106;5.534;2023-10-19T06:32:44;14.40;99.90
18297;DHT22;18066;52.106;5.534;2023-10-19T06:35:12;14.40;99.90
18297;DHT22;18066;52.106;5.534;2023-10-19T06:37:39;14.40;99.90
18297;DHT22;18066;52.106;5.534;2023-10-19T06:40:07;14.50;99.90
18297;DHT22;18066;52.106;5.534;2023-10-19T06:42:36;14.40;99.90
18297;DHT22;18066;52.106;5.534;2023-10-19T06:45:03;14.60;99.90
18297;DHT22;18066;52.106;5.534;2023-10-19T06:47:30;14.50;99.90
18297;DHT22;18066;52.106;5.534;2023-10-19T06:49:57;14.50;99.90
18297;DHT22;18066;52.106;5.534;2023-10-19T06:52:25;14.40;99.90
18297;DHT22;18066;52.106;5.534;2023-10-19T06:54:52;14.50;99.90
18297;DHT22;18066;52.106;5.534;2023-10-19T06:57:19;14.20;99.90
18297;DHT22;18066;52.106;5.534;2023-10-19T06:59:46;14.40;99.90
18297;DHT22;18066;52.106;5.534;2023-10-19T07:02:12;14.40;99.90
18297;DHT22;18066;52.106;5.534;2023-10-19T07:04:39;14.40;99.90
18297;DHT22;18066;52.106;5.534;2023-10-19T07:07:06;14.40;99.90
18297;DHT22;18066;52.106;5.534;2023-10-19T07:09:36;14.50;99.90
18297;DHT22;18066;52.106;5.534;2023-10-19T07:12:03;14.50;99.90
18297;DHT22;18066;52.106;5.534;2023-10-19T07:14:32;14.40;99.90
18297;DHT22;18066;52.106;5.534;2023-10-19T07:16:59;14.50;99.90
18297;DHT22;18066;52.106;5.534;2023-10-19T07:19:26;14.60;99.90
18297;DHT22;18066;52.106;5.534;2023-10-19T07:21:54;14.60;99.90
18297;DHT22;18066;52.106;5.534;2023-10-19T07:24:24;14.60;99.90
18297;DHT22;18066;52.106;5.534;2023-10-19T07:26:52;14.60;99.90
18297;DHT22;18066;52.106;5.534;2023-10-19T07:29:31;14.60;99.90
18297;DHT22;18066;52.106;5.534;2023-10-19T07:31:59;14.70;99.90
18297;DHT22;18066;52.106;5.534;2023-10-19T07:34:25;14.70;99.90
18297;DHT22;18066;52.106;5.534;2023-10-19T07:36:55;14.70;99.90
18297;DHT22;18066;52.106;5.534;2023-10-19T07:39:24;14.80;99.90
18297;DHT22;18066;52.106;5.534;2023-10-19T07:41:53;14.80;99.90
18297;DHT22;18066;52.106;5.534;2023-10-19T07:44:21;14.80;99.90
18297;DHT22;18066;52.106;5.534;2023-10-19T07:46:47;14.90;99.90
18297;DHT22;18066;52.106;5.534;2023-10-19T07:49:17;14.90;99.90
18297;DHT22;18066;52.106;5.534;2023-10-19T07:51:45;14.90;99.90
18297;DHT22;18066;52.106;5.534;2023-10-19T07:54:12;15.00;99.90
18297;DHT22;18066;52.106;5.534;2023-10-19T07:56:39;15.00;99.90
18297;DHT22;18066;52.106;5.534;2023-10-19T07:59:09;15.00;99.90
18297;DHT22;18066;52.106;5.534;2023-10-19T08:01:37;15.10;99.90
18297;DHT22;18066;52.106;5.534;2023-10-19T08:04:04;15.10;99.90
18297;DHT22;18066;52.106;5.534;2023-10-19T08:06:31;15.10;99.90
18297;DHT22;18066;52.106;5.534;2023-10-19T08:08:58;15.10;99.90
18297;DHT22;18066;52.106;5.534;2023-10-19T08:11:26;15.10;99.90
18297;DHT22;18066;52.106;5.534;2023-10-19T08:13:52;15.10;99.90
18297;DHT22;18066;52.106;5.534;2023-10-19T08:16:22;15.10;99.90
18297;DHT22;18066;52.106;5.534;2023-10-19T08:18:49;15.20;99.90
18297;DHT22;18066;52.106;5.534;2023-10-19T08:21:18;15.20;99.90
18297;DHT22;18066;52.106;5.534;2023-10-19T08:23:45;15.20;99.90
18297;DHT22;18066;52.106;5.534;2023-10-19T08:26:13;15.30;99.90
18297;DHT22;18066;52.106;5.534;2023-10-19T08:28:40;15.30;99.90
18297;DHT22;18066;52.106;5.534;2023-10-19T08:31:08;15.30;99.90
18297;DHT22;18066;52.106;5.534;2023-10-19T08:33:37;15.30;99.90
18297;DHT22;18066;52.106;5.534;2023-10-19T08:36:07;15.40;99.90
18297;DHT22;18066;52.106;5.534;2023-10-19T08:38:42;15.40;99.90
18297;DHT22;18066;52.106;5.534;2023-10-19T08:41:09;15.50;99.90
18297;DHT22;18066;52.106;5.534;2023-10-19T08:43:36;15.50;99.90
18297;DHT22;18066;52.106;5.534;2023-10-19T08:46:05;15.60;99.90
18297;DHT22;18066;52.106;5.534;2023-10-19T08:48:34;15.60;99.90
18297;DHT22;18066;52.106;5.534;2023-10-19T08:51:08;15.70;99.90
18297;DHT22;18066;52.106;5.534;2023-10-19T08:53:37;15.80;99.90
18297;DHT22;18066;52.106;5.534;2023-10-19T08:56:06;15.80;99.90
18297;DHT22;18066;52.106;5.534;2023-10-19T08:58:34;15.90;99.90
18297;DHT22;18066;52.106;5.534;2023-10-19T09:01:01;16.00;99.90
18297;DHT22;18066;52.106;5.534;2023-10-19T09:03:32;16.00;99.90
18297;DHT22;18066;52.106;5.534;2023-10-19T09:06:02;16.00;99.90
18297;DHT22;18066;52.106;5.534;2023-10-19T09:08:31;16.00;99.90
18297;DHT22;18066;52.106;5.534;2023-10-19T09:11:06;16.10;99.90
18297;DHT22;18066;52.106;5.534;2023-10-19T09:13:43;16.10;99.90
18297;DHT22;18066;52.106;5.534;2023-10-19T09:16:12;16.20;99.90
18297;DHT22;18066;52.106;5.534;2023-10-19T09:18:40;16.20;99.90
18297;DHT22;18066;52.106;5.534;2023-10-19T09:21:08;16.30;99.90
18297;DHT22;18066;52.106;5.534;2023-10-19T09:23:38;16.40;99.90
18297;DHT22;18066;52.106;5.534;2023-10-19T09:26:07;16.50;99.90
18297;DHT22;18066;52.106;5.534;2023-10-19T09:28:35;16.70;99.90
18297;DHT22;18066;52.106;5.534;2023-10-19T09:31:03;16.90;99.90
18297;DHT22;18066;52.106;5.534;2023-10-19T09:33:32;17.10;99.90
18297;DHT22;18066;52.106;5.534;2023-10-19T09:36:00;17.10;99.90
18297;DHT22;18066;52.106;5.534;2023-10-19T09:38:31;17.30;99.90
18297;DHT22;18066;52.106;5.534;2023-10-19T09:40:58;17.30;99.90
18297;DHT22;18066;52.106;5.534;2023-10-19T09:43:33;17.30;99.90
18297;DHT22;18066;52.106;5.534;2023-10-19T09:46:08;17.30;99.90
18297;DHT22;18066;52.106;5.534;2023-10-19T09:48:39;17.40;99.90
18297;DHT22;18066;52.106;5.534;2023-10-19T09:51:08;17.50;99.90
18297;DHT22;18066;52.106;5.534;2023-10-19T09:53:38;17.60;99.90
18297;DHT22;18066;52.106;5.534;2023-10-19T09:56:08;17.60;99.90
18297;DHT22;18066;52.106;5.534;2023-10-19T09:58:41;17.60;99.90
18297;DHT22;18066;52.106;5.534;2023-10-19T10:01:11;17.70;99.90
18297;DHT22;18066;52.106;5.534;2023-10-19T10:03:46;17.70;99.90
18297;DHT22;18066;52.106;5.534;2023-10-19T10:06:14;17.90;99.90
18297;DHT22;18066;52.106;5.534;2023-10-19T10:08:45;18.00;99.90
18297;DHT22;18066;52.106;5.534;2023-10-19T10:11:20;18.10;99.90
18297;DHT22;18066;52.106;5.534;2023-10-19T10:13:48;18.10;99.90
18297;DHT22;18066;52.106;5.534;2023-10-19T10:16:18;18.20;99.90
18297;DHT22;18066;52.106;5.534;2023-10-19T10:18:49;18.20;99.90
18297;DHT22;18066;52.106;5.534;2023-10-19T10:21:18;18.30;99.90
18297;DHT22;18066;52.106;5.534;2023-10-19T10:23:49;18.30;99.90
18297;DHT22;18066;52.106;5.534;2023-10-19T10:26:17;18.30;99.90
18297;DHT22;18066;52.106;5.534;2023-10-19T10:28:48;18.20;99.90
18297;DHT22;18066;52.106;5.534;2023-10-19T10:31:19;18.10;99.90
18297;DHT22;18066;52.106;5.534;2023-10-19T10:33:48;18.10;99.90
18297;DHT22;18066;52.106;5.534;2023-10-19T10:36:17;18.10;99.90
18297;DHT22;18066;52.106;5.534;2023-10-19T10:38:46;18.10;99.90
18297;DHT22;18066;52.106;5.534;2023-10-19T10:41:19;18.20;99.90
18297;DHT22;18066;52.106;5.534;2023-10-19T10:43:51;18.20;99.90
18297;DHT22;18066;52.106;5.534;2023-10-19T10:46:19;18.30;99.90
18297;DHT22;18066;52.106;5.534;2023-10-19T10:48:47;18.30;99.90
18297;DHT22;18066;52.106;5.534;2023-10-19T10:51:18;18.30;99.90
18297;DHT22;18066;52.106;5.534;2023-10-19T10:53:53;18.20;99.90
18297;DHT22;18066;52.106;5.534;2023-10-19T10:56:23;18.30;99.90
18297;DHT22;18066;52.106;5.534;2023-10-19T10:58:50;18.30;99.90
18297;DHT22;18066;52.106;5.534;2023-10-19T11:01:28;18.30;99.90
18297;DHT22;18066;52.106;5.534;2023-10-19T11:04:05;18.30;99.90
18297;DHT22;18066;52.106;5.534;2023-10-19T11:06:32;18.30;99.90
18297;DHT22;18066;52.106;5.534;2023-10-19T11:09:09;18.30;99.90
18297;DHT22;18066;52.106;5.534;2023-10-19T11:11:38;18.30;99.90
18297;DHT22;18066;52.106;5.534;2023-10-19T11:14:11;18.30;99.90
18297;DHT22;18066;52.106;5.534;2023-10-19T11:16:38;18.40;99.90
18297;DHT22;18066;52.106;5.534;2023-10-19T11:19:05;18.50;99.90
18297;DHT22;18066;52.106;5.534;2023-10-19T11:21:32;18.60;99.90
18297;DHT22;18066;52.106;5.534;2023-10-19T11:23:59;18.70;99.90
18297;DHT22;18066;52.106;5.534;2023-10-19T11:26:27;18.80;99.90
18297;DHT22;18066;52.106;5.534;2023-10-19T11:29:00;18.90;99.90
18297;DHT22;18066;52.106;5.534;2023-10-19T11:31:29;19.00;99.90
18297;DHT22;18066;52.106;5.534;2023-10-19T11:34:03;19.00;99.90
18297;DHT22;18066;52.106;5.534;2023-10-19T11:36:30;19.00;99.90
18297;DHT22;18066;52.106;5.534;2023-10-19T11:38:57;19.10;99.90
18297;DHT22;18066;52.106;5.534;2023-10-19T11:41:24;19.10;99.90
18297;DHT22;18066;52.106;5.534;2023-10-19T11:43:51;19.10;99.90
18297;DHT22;18066;52.106;5.534;2023-10-19T11:46:19;19.30;99.90
18297;DHT22;18066;52.106;5.534;2023-10-19T11:48:48;19.50;99.90
18297;DHT22;18066;52.106;5.534;2023-10-19T11:51:15;19.60;99.90
18297;DHT22;18066;52.106;5.534;2023-10-19T11:53:42;19.80;99.90
18297;DHT22;18066;52.106;5.534;2023-10-19T11:56:10;19.90;99.90
18297;DHT22;18066;52.106;5.534;2023-10-19T11:58:38;20.00;99.90
18297;DHT22;18066;52.106;5.534;2023-10-19T12:01:07;19.90;99.90
18297;DHT22;18066;52.106;5.534;2023-10-19T12:03:39;19.80;99.90
18297;DHT22;18066;52.106;5.534;2023-10-19T12:06:06;19.80;99.90
18297;DHT22;18066;52.106;5.534;2023-10-19T12:08:33;19.80;99.90
18297;DHT22;18066;52.106;5.534;2023-10-19T12:11:01;19.80;99.90
18297;DHT22;18066;52.106;5.534;2023-10-19T12:13:29;19.80;99.90
18297;DHT22;18066;52.106;5.534;2023-10-19T12:15:56;19.80;99.90
18297;DHT22;18066;52.106;5.534;2023-10-19T12:18:23;19.70;99.90
18297;DHT22;18066;52.106;5.534;2023-10-19T12:20:53;19.50;99.90
18297;DHT22;18066;52.106;5.534;2023-10-19T12:23:22;19.40;99.90
18297;DHT22;18066;52.106;5.534;2023-10-19T12:25:49;19.20;99.90
18297;DHT22;18066;52.106;5.534;2023-10-19T12:28:16;19.10;99.90
18297;DHT22;18066;52.106;5.534;2023-10-19T12:30:43;19.10;99.90
18297;DHT22;18066;52.106;5.534;2023-10-19T12:33:10;19.10;99.90
18297;DHT22;18066;52.106;5.534;2023-10-19T12:35:41;19.00;99.90
18297;DHT22;18066;52.106;5.534;2023-10-19T12:38:16;18.90;99.90
18297;DHT22;18066;52.106;5.534;2023-10-19T12:40:46;18.80;99.90
18297;DHT22;18066;52.106;5.534;2023-10-19T12:43:13;18.80;99.90
18297;DHT22;18066;52.106;5.534;2023-10-19T12:45:41;18.80;99.90
18297;DHT22;18066;52.106;5.534;2023-10-19T12:48:09;18.70;99.90
18297;DHT22;18066;52.106;5.534;2023-10-19T12:50:37;18.70;99.90
18297;DHT22;18066;52.106;5.534;2023-10-19T12:53:07;18.70;99.90
18297;DHT22;18066;52.106;5.534;2023-10-19T12:55:35;18.60;99.90
18297;DHT22;18066;52.106;5.534;2023-10-19T12:58:04;18.60;99.90
18297;DHT22;18066;52.106;5.534;2023-10-19T13:00:35;18.50;99.90
18297;DHT22;18066;52.106;5.534;2023-10-19T13:03:09;18.50;99.90
18297;DHT22;18066;52.106;5.534;2023-10-19T13:05:39;18.50;99.90
18297;DHT22;18066;52.106;5.534;2023-10-19T13:08:08;18.40;99.90
18297;DHT22;18066;52.106;5.534;2023-10-19T13:10:36;18.40;99.90
18297;DHT22;18066;52.106;5.534;2023-10-19T13:13:07;18.30;99.90
18297;DHT22;18066;52.106;5.534;2023-10-19T13:15:37;18.30;99.90
18297;DHT22;18066;52.106;5.534;2023-10-19T13:18:06;18.30;99.90
18297;DHT22;18066;52.106;5.534;2023-10-19T13:20:35;18.20;99.90
18297;DHT22;18066;52.106;5.534;2023-10-19T13:23:04;18.20;99.90
18297;DHT22;18066;52.106;5.534;2023-10-19T13:25:32;18.10;99.90
18297;DHT22;18066;52.106;5.534;2023-10-19T13:28:14;18.10;99.90
18297;DHT22;18066;52.106;5.534;2023-10-19T13:30:45;18.10;99.90
18297;DHT22;18066;52.106;5.534;2023-10-19T13:33:13;18.10;99.90
18297;DHT22;18066;52.106;5.534;2023-10-19T13:35:42;18.00;99.90
18297;DHT22;18066;52.106;5.534;2023-10-19T13:38:09;18.00;99.90
18297;DHT22;18066;52.106;5.534;2023-10-19T13:40:37;17.90;99.90
18297;DHT22;18066;52.106;5.534;2023-10-19T13:43:05;17.90;99.90
18297;DHT22;18066;52.106;5.534;2023-10-19T13:45:34;17.90;99.90
18297;DHT22;18066;52.106;5.534;2023-10-19T13:48:02;17.90;99.90
18297;DHT22;18066;52.106;5.534;2023-10-19T13:50:29;17.90;99.90
18297;DHT22;18066;52.106;5.534;2023-10-19T13:52:56;17.90;99.90
18297;DHT22;18066;52.106;5.534;2023-10-19T13:55:23;17.90;99.90
18297;DHT22;18066;52.106;5.534;2023-10-19T13:57:50;18.00;99.90
18297;DHT22;18066;52.106;5.534;2023-10-19T14:00:20;18.00;99.90
18297;DHT22;18066;52.106;5.534;2023-10-19T14:02:52;18.10;99.90
18297;DHT22;18066;52.106;5.534;2023-10-19T14:05:19;18.20;99.90
18297;DHT22;18066;52.106;5.534;2023-10-19T14:07:50;18.30;99.90
18297;DHT22;18066;52.106;5.534;2023-10-19T14:10:17;18.30;99.90
18297;DHT22;18066;52.106;5.534;2023-10-19T14:12:46;18.30;99.90
18297;DHT22;18066;52.106;5.534;2023-10-19T14:15:14;18.30;99.90
18297;DHT22;18066;52.106;5.534;2023-10-19T14:17:41;18.10;99.90
18297;DHT22;18066;52.106;5.534;2023-10-19T14:20:11;18.10;99.90
18297;DHT22;18066;52.106;5.534;2023-10-19T14:22:40;18.00;99.90
18297;DHT22;18066;52.106;5.534;2023-10-19T14:25:07;17.90;99.90
18297;DHT22;18066;52.106;5.534;2023-10-19T14:27:39;18.00;99.90
18297;DHT22;18066;52.106;5.534;2023-10-19T14:30:06;17.90;99.90
18297;DHT22;18066;52.106;5.534;2023-10-19T14:32:34;17.90;99.90
18297;DHT22;18066;52.106;5.534;2023-10-19T14:35:01;17.90;99.90
18297;DHT22;18066;52.106;5.534;2023-10-19T14:37:30;17.80;99.90
18297;DHT22;18066;52.106;5.534;2023-10-19T14:39:57;17.80;99.90
18297;DHT22;18066;52.106;5.534;2023-10-19T14:42:24;17.80;99.90
18297;DHT22;18066;52.106;5.534;2023-10-19T14:44:51;17.80;99.90
18297;DHT22;18066;52.106;5.534;2023-10-19T14:47:18;17.70;99.90
18297;DHT22;18066;52.106;5.534;2023-10-19T14:49:45;17.70;99.90
18297;DHT22;18066;52.106;5.534;2023-10-19T14:52:12;17.70;99.90
18297;DHT22;18066;52.106;5.534;2023-10-19T14:54:41;17.70;99.90
18297;DHT22;18066;52.106;5.534;2023-10-19T14:57:08;17.60;99.90
18297;DHT22;18066;52.106;5.534;2023-10-19T14:59:36;17.70;99.90
18297;DHT22;18066;52.106;5.534;2023-10-19T15:02:03;17.70;99.90
18297;DHT22;18066;52.106;5.534;2023-10-19T15:04:37;17.70;99.90
18297;DHT22;18066;52.106;5.534;2023-10-19T15:07:04;17.70;99.90
18297;DHT22;18066;52.106;5.534;2023-10-19T15:09:31;17.70;99.90
18297;DHT22;18066;52.106;5.534;2023-10-19T15:12:00;17.80;99.90
18297;DHT22;18066;52.106;5.534;2023-10-19T15:14:28;17.60;99.90
18297;DHT22;18066;52.106;5.534;2023-10-19T15:16:58;17.60;99.90
18297;DHT22;18066;52.106;5.534;2023-10-19T15:19:25;17.60;99.90
18297;DHT22;18066;52.106;5.534;2023-10-19T15:21:54;17.60;99.90
18297;DHT22;18066;52.106;5.534;2023-10-19T15:24:21;17.50;99.90
18297;DHT22;18066;52.106;5.534;2023-10-19T15:26:48;17.50;99.90
18297;DHT22;18066;52.106;5.534;2023-10-19T15:29:16;17.50;99.90
18297;DHT22;18066;52.106;5.534;2023-10-19T15:31:44;17.50;99.90
18297;DHT22;18066;52.106;5.534;2023-10-19T15:34:11;17.50;99.90
18297;DHT22;18066;52.106;5.534;2023-10-19T15:36:38;17.40;99.90
18297;DHT22;18066;52.106;5.534;2023-10-19T15:39:05;17.30;99.90
18297;DHT22;18066;52.106;5.534;2023-10-19T15:41:36;17.30;99.90
18297;DHT22;18066;52.106;5.534;2023-10-19T15:44:03;17.40;99.90